Time;durP1;ratioP1;P1;durP2;ratioP2;P2;SDS_P1;SDS_P2;PMS_P1;PMS_P2;Temp;Humidity;BMP_temperature;BMP_pressure;BME280_temperature;BME280_humidity;BME280_pressure;Samples;Min_cycle;Max_cycle;Signal;HPM_P1;HPM_P2
2022/01/02 00:01:12;;;;;;;22.13;16.10;;;7.10;99.90;;;;;;4902035;29;20431;-62
2022/01/02 00:03:40;;;;;;;22.13;17.37;;;7.00;99.90;;;;;;4899786;29;20491;-62
2022/01/02 00:06:07;;;;;;;25.33;17.37;;;7.00;99.90;;;;;;4903077;29;20860;-62
2022/01/02 00:08:46;;;;;;;22.20;17.30;;;7.00;99.90;;;;;;4905310;29;20455;-62
2022/01/02 00:11:21;;;;;;;21.30;16.10;;;7.00;99.90;;;;;;4907242;29;20472;-62
2022/01/02 00:13:47;;;;;;;24.37;17.80;;;6.90;99.90;;;;;;4904851;29;20426;-62
2022/01/02 00:16:16;;;;;;;23.07;17.40;;;6.90;99.90;;;;;;4903796;29;20463;-62
2022/01/02 00:18:50;;;;;;;20.60;16.60;;;6.90;99.90;;;;;;4899751;29;20461;-62
2022/01/02 00:21:18;;;;;;;21.17;16.47;;;6.90;99.90;;;;;;4906507;29;20455;-63
2022/01/02 00:24:00;;;;;;;20.77;15.50;;;6.80;99.90;;;;;;4897980;29;20935;-63
2022/01/02 00:26:44;;;;;;;20.10;14.87;;;6.70;99.90;;;;;;4882959;29;21170;-68
2022/01/02 00:29:11;;;;;;;20.33;13.67;;;6.70;99.90;;;;;;4891901;29;20957;-63
2022/01/02 00:31:38;;;;;;;20.20;13.87;;;6.70;99.90;;;;;;4908089;29;20456;-63
2022/01/02 00:34:04;;;;;;;22.67;14.50;;;6.70;99.90;;;;;;4905015;29;20618;-63
2022/01/02 00:36:30;;;;;;;21.23;14.40;;;6.70;99.90;;;;;;4903106;29;20946;-61
2022/01/02 00:38:56;;;;;;;18.77;14.33;;;6.70;99.90;;;;;;4899795;29;20449;-63
2022/01/02 00:41:36;;;;;;;20.30;14.20;;;6.80;99.90;;;;;;4898965;29;20199;-63
2022/01/02 00:44:18;;;;;;;19.63;14.03;;;6.70;99.90;;;;;;4901783;29;20569;-63
2022/01/02 00:47:05;;;;;;;18.40;13.50;;;6.70;99.90;;;;;;4900382;29;20448;-62
2022/01/02 00:49:38;;;;;;;19.07;14.23;;;6.70;99.90;;;;;;4909128;29;20470;-64
2022/01/02 00:52:08;;;;;;;17.85;13.48;;;6.70;99.90;;;;;;4899415;29;20950;-63
2022/01/02 00:54:38;;;;;;;17.65;13.27;;;6.60;99.90;;;;;;4897837;29;20579;-64
2022/01/02 00:57:08;;;;;;;17.13;13.00;;;6.60;99.90;;;;;;4896331;29;20196;-63
2022/01/02 00:59:45;;;;;;;18.83;14.20;;;6.60;99.90;;;;;;4889282;29;20851;-63
2022/01/02 01:02:17;;;;;;;16.27;12.93;;;6.50;99.90;;;;;;4900485;29;20884;-64
2022/01/02 01:04:43;;;;;;;17.15;12.88;;;6.50;99.90;;;;;;4898795;29;20181;-63
2022/01/02 01:07:09;;;;;;;17.35;12.27;;;6.50;99.90;;;;;;4896226;29;20673;-63
2022/01/02 01:09:35;;;;;;;23.03;12.87;;;6.40;99.90;;;;;;4893447;29;20212;-62
2022/01/02 01:12:03;;;;;;;18.13;12.57;;;6.40;99.90;;;;;;4900480;29;20451;-62
2022/01/02 01:14:29;;;;;;;17.92;12.05;;;6.40;99.90;;;;;;4896632;29;20222;-63
2022/01/02 01:16:56;;;;;;;16.33;11.73;;;6.40;99.90;;;;;;4903837;29;20199;-65
2022/01/02 01:19:23;;;;;;;15.60;13.13;;;6.40;99.90;;;;;;4889405;29;20442;-61
2022/01/02 01:21:49;;;;;;;19.90;13.43;;;6.50;99.90;;;;;;4906244;29;20466;-63
2022/01/02 01:24:15;;;;;;;20.45;12.32;;;6.40;99.90;;;;;;4900241;29;20191;-66
2022/01/02 01:26:40;;;;;;;17.50;12.60;;;6.40;99.90;;;;;;4898908;29;20251;-61
2022/01/02 01:29:07;;;;;;;16.93;11.87;;;6.30;99.90;;;;;;4906086;29;20187;-63
2022/01/02 01:31:32;;;;;;;16.58;11.63;;;6.30;99.90;;;;;;4903986;29;20179;-62
2022/01/02 01:33:58;;;;;;;17.67;11.57;;;6.30;99.90;;;;;;4892569;29;20574;-62
2022/01/02 01:36:23;;;;;;;16.17;11.37;;;6.20;99.90;;;;;;4885945;29;20557;-62
2022/01/02 01:38:49;;;;;;;21.07;11.97;;;6.20;99.90;;;;;;4877613;29;20209;-65
2022/01/02 01:41:21;;;;;;;14.47;11.50;;;6.20;99.90;;;;;;4861164;29;20218;-62
2022/01/02 01:44:05;;;;;;;16.35;12.45;;;6.10;99.90;;;;;;4889459;29;20193;-62
2022/01/02 01:46:31;;;;;;;15.23;12.23;;;6.10;99.90;;;;;;4890967;29;20263;-62
2022/01/02 01:48:57;;;;;;;18.20;12.02;;;6.10;99.90;;;;;;4889755;29;20212;-65
2022/01/02 01:51:23;;;;;;;15.13;11.67;;;6.10;99.90;;;;;;4889544;29;20241;-61
2022/01/02 01:53:49;;;;;;;14.68;11.25;;;6.00;99.90;;;;;;4885870;29;20643;-63
2022/01/02 01:56:15;;;;;;;18.03;12.47;;;6.00;99.90;;;;;;4884958;29;20219;-65
2022/01/02 01:58:40;;;;;;;15.80;11.60;;;5.90;99.90;;;;;;4892565;29;20195;-62
2022/01/02 02:01:06;;;;;;;15.33;11.67;;;6.00;99.90;;;;;;4870027;29;20441;-62
2022/01/02 02:03:31;;;;;;;18.20;12.00;;;6.00;99.90;;;;;;4889421;29;20250;-65
2022/01/02 02:05:57;;;;;;;15.73;11.70;;;6.10;99.90;;;;;;4879611;29;20561;-65
2022/01/02 02:08:26;;;;;;;18.70;11.57;;;6.00;99.90;;;;;;4883714;29;20192;-63
2022/01/02 02:10:57;;;;;;;14.63;10.75;;;6.00;99.90;;;;;;4881588;29;20196;-64
2022/01/02 02:13:24;;;;;;;15.35;11.23;;;6.00;99.90;;;;;;4887631;29;20187;-64
2022/01/02 02:15:50;;;;;;;14.80;10.88;;;6.10;99.90;;;;;;4883362;29;20560;-64
2022/01/02 02:18:17;;;;;;;16.63;12.10;;;6.10;99.90;;;;;;4886891;29;20655;-69
2022/01/02 02:20:43;;;;;;;14.40;10.95;;;6.10;99.90;;;;;;4884907;29;20443;-63
2022/01/02 02:23:08;;;;;;;14.50;10.30;;;6.10;99.90;;;;;;4884105;29;20222;-65
2022/01/02 02:25:37;;;;;;;14.83;10.50;;;6.10;99.90;;;;;;4883681;29;20444;-62
2022/01/02 02:28:06;;;;;;;17.27;10.90;;;6.10;99.90;;;;;;4883866;29;20207;-63
2022/01/02 02:30:34;;;;;;;15.75;11.50;;;6.20;99.90;;;;;;4891681;29;20634;-62
2022/01/02 02:33:01;;;;;;;14.83;10.40;;;6.20;99.90;;;;;;4889895;29;20748;-62
2022/01/02 02:35:29;;;;;;;15.87;10.43;;;6.30;99.90;;;;;;4883244;29;20451;-65
2022/01/02 02:37:55;;;;;;;14.07;11.05;;;6.20;99.90;;;;;;4881120;29;20448;-61
2022/01/02 02:40:23;;;;;;;16.53;11.80;;;6.20;99.90;;;;;;4890167;29;20192;-62
2022/01/02 02:42:53;;;;;;;17.60;11.10;;;6.20;99.90;;;;;;4884806;29;20550;-62
2022/01/02 02:51:12;;;;;;;16.65;10.85;;;6.20;99.90;;;;;;4886043;29;20198;-61
2022/01/02 02:53:41;;;;;;;14.77;11.10;;;6.20;99.90;;;;;;4890348;29;20773;-62
2022/01/02 02:56:25;;;;;;;16.52;11.32;;;6.20;99.90;;;;;;4890423;29;20206;-62
2022/01/02 02:58:56;;;;;;;17.60;11.77;;;6.20;99.90;;;;;;4883466;29;20834;-62
2022/01/02 03:01:24;;;;;;;14.48;11.27;;;6.30;99.90;;;;;;4892411;29;20547;-62
2022/01/02 03:03:50;;;;;;;20.38;12.30;;;6.30;99.90;;;;;;4882888;29;20189;-62
2022/01/02 03:06:16;;;;;;;17.07;11.77;;;6.30;99.90;;;;;;4879878;29;20694;-62
2022/01/02 03:08:43;;;;;;;16.10;11.57;;;6.30;99.90;;;;;;4887201;29;20551;-62
2022/01/02 03:11:14;;;;;;;16.33;10.90;;;6.50;99.90;;;;;;4885356;29;20440;-61
2022/01/02 03:13:40;;;;;;;15.93;11.20;;;6.50;99.90;;;;;;4878427;29;21037;-62
2022/01/02 03:16:05;;;;;;;18.50;10.30;;;6.50;99.90;;;;;;4882836;29;20196;-61
2022/01/02 03:18:31;;;;;;;14.10;10.83;;;6.50;99.90;;;;;;4887860;29;20190;-61
2022/01/02 03:20:57;;;;;;;17.60;10.87;;;6.60;99.90;;;;;;4882633;29;20202;-52
2022/01/02 03:23:22;;;;;;;13.40;10.40;;;6.50;99.90;;;;;;4881461;29;20469;-62
2022/01/02 03:25:48;;;;;;;16.33;10.90;;;6.50;99.90;;;;;;4860845;29;20184;-62
2022/01/02 03:28:14;;;;;;;13.27;10.40;;;6.50;99.90;;;;;;4880651;29;20612;-62
2022/01/02 03:30:41;;;;;;;12.70;10.07;;;6.50;99.90;;;;;;4886313;29;20180;-62
2022/01/02 03:33:06;;;;;;;13.75;10.00;;;6.50;99.90;;;;;;4893213;29;20290;-62
2022/01/02 03:35:32;;;;;;;18.13;11.33;;;6.50;99.90;;;;;;4902555;29;20186;-62
2022/01/02 03:37:57;;;;;;;17.53;10.90;;;6.50;99.90;;;;;;4903174;29;20200;-64
2022/01/02 03:40:23;;;;;;;13.87;10.57;;;6.50;99.90;;;;;;4901378;29;20289;-62
2022/01/02 03:42:48;;;;;;;13.13;9.47;;;6.50;99.90;;;;;;4906661;29;20825;-63
2022/01/02 03:45:14;;;;;;;12.83;10.23;;;6.50;99.90;;;;;;4896496;29;20187;-63
2022/01/02 03:47:40;;;;;;;15.20;9.73;;;6.50;99.90;;;;;;4909378;29;20190;-63
2022/01/02 03:50:06;;;;;;;14.37;9.97;;;6.50;99.90;;;;;;4905437;29;20197;-63
2022/01/02 03:52:31;;;;;;;14.68;10.70;;;6.60;99.90;;;;;;4903721;29;20204;-62
2022/01/02 03:54:57;;;;;;;15.87;10.60;;;6.50;99.90;;;;;;4907665;29;20203;-62
2022/01/02 03:57:23;;;;;;;14.63;10.60;;;6.50;99.90;;;;;;4902281;29;20198;-62
2022/01/02 03:59:48;;;;;;;14.70;11.10;;;6.50;99.90;;;;;;4899307;29;20545;-62
2022/01/02 04:02:14;;;;;;;11.60;10.20;;;6.50;99.90;;;;;;4900493;29;20221;-63
2022/01/02 04:04:40;;;;;;;13.07;10.77;;;6.60;99.90;;;;;;4902355;29;20194;-62
2022/01/02 04:07:05;;;;;;;12.93;9.70;;;6.60;99.90;;;;;;4901711;29;20211;-62
2022/01/02 04:09:31;;;;;;;14.87;11.00;;;6.60;99.90;;;;;;4902286;29;20180;-63
2022/01/02 04:11:57;;;;;;;15.60;10.00;;;6.60;99.90;;;;;;4911336;29;20214;-64
2022/01/02 04:14:22;;;;;;;12.20;9.80;;;6.60;99.90;;;;;;4908078;29;20217;-63
2022/01/02 04:16:48;;;;;;;14.50;10.17;;;6.60;99.90;;;;;;4902545;29;20534;-62
2022/01/02 04:19:13;;;;;;;12.07;9.50;;;6.60;99.90;;;;;;4905285;29;20205;-62
2022/01/02 04:21:39;;;;;;;16.20;10.20;;;6.60;99.90;;;;;;4906909;29;20226;-63
2022/01/02 04:24:05;;;;;;;15.30;10.33;;;6.50;99.90;;;;;;4909671;29;20176;-59
2022/01/02 04:26:30;;;;;;;13.80;10.37;;;6.50;99.90;;;;;;4901058;29;20191;-62
2022/01/02 04:28:56;;;;;;;13.80;10.67;;;6.40;99.90;;;;;;4902473;29;20180;-62
2022/01/02 04:31:22;;;;;;;17.63;10.77;;;6.40;99.90;;;;;;4897345;29;20199;-62
2022/01/02 04:33:47;;;;;;;15.73;10.63;;;6.40;99.90;;;;;;4900895;29;20922;-62
2022/01/02 04:36:13;;;;;;;16.20;10.80;;;6.40;99.90;;;;;;4909599;29;20475;-62
2022/01/02 04:38:40;;;;;;;13.77;9.90;;;6.30;99.90;;;;;;4897571;29;20195;-62
2022/01/02 04:41:06;;;;;;;17.40;10.77;;;6.30;99.90;;;;;;4907740;29;20622;-62
2022/01/02 04:43:31;;;;;;;13.70;9.67;;;6.40;99.90;;;;;;4905372;29;20254;-62
2022/01/02 04:45:57;;;;;;;16.77;10.97;;;6.40;99.90;;;;;;4899324;29;20179;-62
2022/01/02 04:48:22;;;;;;;12.23;9.30;;;6.40;99.90;;;;;;4903187;29;20649;-61
2022/01/02 04:50:48;;;;;;;15.20;10.30;;;6.40;99.90;;;;;;4907729;29;20191;-61
2022/01/02 04:53:16;;;;;;;13.20;10.60;;;6.40;99.90;;;;;;4903914;29;20198;-62
2022/01/02 04:55:42;;;;;;;14.80;11.75;;;6.30;99.90;;;;;;4904441;29;20502;-61
2022/01/02 04:58:07;;;;;;;15.70;10.95;;;6.40;99.90;;;;;;4905393;29;20202;-64
2022/01/02 05:00:33;;;;;;;16.97;10.63;;;6.30;99.90;;;;;;4889232;29;20195;-62
2022/01/02 05:02:58;;;;;;;15.57;10.93;;;6.30;99.90;;;;;;4906214;29;20298;-61
2022/01/02 05:05:24;;;;;;;13.37;10.57;;;6.30;99.90;;;;;;4908215;29;20195;-61
2022/01/02 05:07:50;;;;;;;15.93;11.60;;;6.40;99.90;;;;;;4908389;29;20195;-62
2022/01/02 05:10:15;;;;;;;14.87;11.00;;;6.50;99.90;;;;;;4895780;29;20605;-62
2022/01/02 05:12:41;;;;;;;15.47;10.70;;;6.40;99.90;;;;;;4900412;29;20195;-62
2022/01/02 05:15:06;;;;;;;12.73;10.00;;;6.40;99.90;;;;;;4895176;29;20657;-62
2022/01/02 05:17:32;;;;;;;15.83;10.70;;;6.40;99.90;;;;;;4904365;29;20254;-61
2022/01/02 05:19:57;;;;;;;14.07;10.07;;;6.40;99.90;;;;;;4900964;29;20530;-62
2022/01/02 05:22:23;;;;;;;15.37;10.70;;;6.50;99.90;;;;;;4911537;29;20214;-62
2022/01/02 05:24:49;;;;;;;16.27;11.27;;;6.50;99.90;;;;;;4909892;29;20187;-62
2022/01/02 05:27:14;;;;;;;15.73;11.07;;;6.50;99.90;;;;;;4899429;29;20219;-62
2022/01/02 05:29:40;;;;;;;13.43;10.70;;;6.50;99.90;;;;;;4905481;29;20597;-62
2022/01/02 05:32:05;;;;;;;15.93;11.17;;;6.60;99.90;;;;;;4913382;29;20195;-62
2022/01/02 05:34:31;;;;;;;13.33;10.57;;;6.70;99.90;;;;;;4901065;29;20243;-61
2022/01/02 05:36:56;;;;;;;12.90;10.20;;;6.70;99.90;;;;;;4899237;29;20653;-62
2022/01/02 05:39:23;;;;;;;12.03;9.60;;;6.80;99.90;;;;;;4902612;29;20195;-62
2022/01/02 05:41:51;;;;;;;13.67;10.10;;;6.90;99.90;;;;;;4905994;29;20216;-63
2022/01/02 05:44:17;;;;;;;12.50;9.60;;;7.00;99.90;;;;;;4906658;29;20420;-63
2022/01/02 05:46:43;;;;;;;14.03;11.37;;;7.00;99.90;;;;;;4899337;29;20544;-62
2022/01/02 05:49:09;;;;;;;10.90;8.63;;;7.10;99.90;;;;;;4902338;29;20451;-62
2022/01/02 05:51:35;;;;;;;12.53;9.43;;;7.20;99.90;;;;;;4908694;29;20424;-62
2022/01/02 05:54:01;;;;;;;11.53;9.03;;;7.30;99.90;;;;;;4910545;29;20447;-63
2022/01/02 05:56:27;;;;;;;10.37;8.67;;;7.40;99.90;;;;;;4899617;29;20183;-63
2022/01/02 05:58:53;;;;;;;11.83;9.80;;;7.50;99.90;;;;;;4887500;29;20501;-61
2022/01/02 06:01:18;;;;;;;11.27;9.07;;;7.70;99.90;;;;;;4899638;29;20315;-62
2022/01/02 06:03:44;;;;;;;11.27;8.90;;;7.80;99.90;;;;;;4907037;29;20211;-62
2022/01/02 06:06:09;;;;;;;10.50;8.70;;;7.90;99.90;;;;;;4897677;29;20247;-62
2022/01/02 06:08:35;;;;;;;12.27;9.00;;;8.00;99.90;;;;;;4909101;29;20600;-62
2022/01/02 06:11:00;;;;;;;11.60;9.00;;;8.20;99.90;;;;;;4897356;29;20198;-62
2022/01/02 06:13:26;;;;;;;10.30;7.97;;;8.30;99.90;;;;;;4901625;29;20662;-61
2022/01/02 06:15:53;;;;;;;11.50;8.83;;;8.40;99.90;;;;;;4907998;29;20301;-61
2022/01/02 06:18:19;;;;;;;11.37;9.07;;;8.40;99.90;;;;;;4896444;29;21260;-62
2022/01/02 06:20:45;;;;;;;10.80;7.07;;;8.50;99.90;;;;;;4894806;29;20455;-62
2022/01/02 06:23:11;;;;;;;10.37;7.93;;;8.60;99.90;;;;;;4900399;29;21023;-62
2022/01/02 06:25:37;;;;;;;9.60;7.93;;;8.60;99.90;;;;;;4896041;29;20214;-64
2022/01/02 06:28:02;;;;;;;9.30;7.33;;;8.60;99.90;;;;;;4902062;29;20435;-61
2022/01/02 06:30:28;;;;;;;9.30;7.90;;;8.60;99.90;;;;;;4905057;29;20314;-61
2022/01/02 06:32:56;;;;;;;9.30;7.47;;;8.70;99.90;;;;;;4905903;29;20235;-62
2022/01/02 06:35:27;;;;;;;11.07;8.30;;;8.70;99.90;;;;;;4896006;29;20200;-62
2022/01/02 06:37:53;;;;;;;10.57;8.00;;;8.70;99.90;;;;;;4895902;29;20464;-62
2022/01/02 06:40:19;;;;;;;9.20;7.27;;;8.70;99.90;;;;;;4895191;29;20451;-62
2022/01/02 06:42:46;;;;;;;11.37;7.50;;;8.70;99.90;;;;;;4906521;29;20471;-62
2022/01/02 06:45:11;;;;;;;13.70;8.07;;;8.70;99.90;;;;;;4908186;29;20449;-62
2022/01/02 06:47:37;;;;;;;8.13;7.27;;;8.70;99.90;;;;;;4904589;29;22139;-61
2022/01/02 06:50:04;;;;;;;9.13;7.80;;;8.70;99.90;;;;;;4882116;29;20184;-63
2022/01/02 06:52:29;;;;;;;9.23;7.50;;;8.70;99.90;;;;;;4894062;29;20206;-62
2022/01/02 06:54:55;;;;;;;11.10;8.10;;;8.70;99.90;;;;;;4901127;29;20439;-62
2022/01/02 06:57:21;;;;;;;12.63;8.67;;;8.70;99.90;;;;;;4901468;29;20195;-62
2022/01/02 06:59:48;;;;;;;10.90;7.80;;;8.70;99.90;;;;;;4903297;29;20187;-61
2022/01/02 07:02:14;;;;;;;10.60;7.80;;;8.80;99.90;;;;;;4899844;29;20476;-61
2022/01/02 07:04:39;;;;;;;8.80;7.30;;;8.80;99.90;;;;;;4898753;29;20436;-62
2022/01/02 07:07:05;;;;;;;11.93;7.87;;;8.80;99.90;;;;;;4899658;29;20427;-62
2022/01/02 07:09:31;;;;;;;8.87;7.40;;;8.80;99.90;;;;;;4897842;29;20191;-61
2022/01/02 07:11:58;;;;;;;9.70;7.70;;;8.80;99.90;;;;;;4901583;29;20191;-61
2022/01/02 07:14:26;;;;;;;11.83;7.50;;;8.70;99.90;;;;;;4902980;29;20542;-62
2022/01/02 07:16:54;;;;;;;9.93;7.77;;;8.80;99.90;;;;;;4889666;29;20454;-62
2022/01/02 07:19:20;;;;;;;8.60;7.40;;;8.80;99.90;;;;;;4894084;29;20427;-63
2022/01/02 07:21:46;;;;;;;10.17;7.80;;;8.80;99.90;;;;;;4878456;29;20784;-62
2022/01/02 07:24:12;;;;;;;10.00;8.40;;;8.70;99.90;;;;;;4894738;29;20440;-62
2022/01/02 07:26:37;;;;;;;9.80;8.00;;;8.60;99.90;;;;;;4895975;29;20199;-61
2022/01/02 07:29:03;;;;;;;9.47;7.13;;;8.60;99.90;;;;;;4894675;29;20243;-62
2022/01/02 07:31:28;;;;;;;9.47;7.43;;;8.80;99.90;;;;;;4890765;29;20191;-62
2022/01/02 07:33:54;;;;;;;9.03;7.00;;;8.70;99.90;;;;;;4895765;29;20243;-63
2022/01/02 07:36:19;;;;;;;9.57;7.60;;;8.60;99.90;;;;;;4894382;29;20235;-62
2022/01/02 07:38:45;;;;;;;8.90;7.90;;;8.50;99.90;;;;;;4892896;29;20199;-62
2022/01/02 07:41:11;;;;;;;9.70;7.97;;;8.60;99.90;;;;;;4893231;29;20208;-63
2022/01/02 07:43:36;;;;;;;9.47;7.40;;;8.70;99.90;;;;;;4893630;29;20306;-62
2022/01/02 07:46:02;;;;;;;9.60;7.67;;;8.70;99.90;;;;;;4904291;29;20562;-63
2022/01/02 07:48:27;;;;;;;9.43;7.47;;;8.70;99.90;;;;;;4891193;29;20195;-60
2022/01/02 07:50:53;;;;;;;9.17;7.60;;;8.80;99.90;;;;;;4895060;29;20192;-60
2022/01/02 07:53:18;;;;;;;8.93;7.00;;;8.70;99.90;;;;;;4894528;29;20199;-59
2022/01/02 07:55:44;;;;;;;9.47;7.30;;;8.70;99.90;;;;;;4894648;29;20278;-59
2022/01/02 07:58:10;;;;;;;11.30;7.17;;;8.70;99.90;;;;;;4892096;29;20200;-60
2022/01/02 08:00:35;;;;;;;10.53;7.63;;;8.70;99.90;;;;;;4877162;29;20597;-60
2022/01/02 08:03:01;;;;;;;9.07;7.17;;;8.70;99.90;;;;;;4892325;29;20482;-59
2022/01/02 08:05:26;;;;;;;10.90;7.53;;;8.70;99.90;;;;;;4893016;29;20223;-60
2022/01/02 08:07:52;;;;;;;9.67;7.50;;;8.70;99.90;;;;;;4887350;29;21057;-60
2022/01/02 08:10:18;;;;;;;9.53;7.30;;;8.70;99.90;;;;;;4893286;29;20224;-60
2022/01/02 08:12:43;;;;;;;8.87;7.37;;;8.80;99.90;;;;;;4894187;29;20634;-60
2022/01/02 08:15:09;;;;;;;12.67;8.30;;;8.90;99.90;;;;;;4880898;29;20526;-60
2022/01/02 08:17:35;;;;;;;10.67;8.40;;;9.00;99.90;;;;;;4894835;29;20215;-60
2022/01/02 08:20:01;;;;;;;9.13;7.60;;;9.10;99.90;;;;;;4888560;29;20848;-60
2022/01/02 08:22:27;;;;;;;9.67;7.73;;;9.40;99.90;;;;;;4891163;29;20839;-60
2022/01/02 08:24:52;;;;;;;9.10;7.73;;;9.50;99.90;;;;;;4884509;29;20539;-60
2022/01/02 08:27:18;;;;;;;9.90;6.97;;;9.60;99.90;;;;;;4886398;29;20183;-59
2022/01/02 08:29:43;;;;;;;7.20;6.37;;;9.60;99.90;;;;;;4889461;29;20207;-56
2022/01/02 08:32:09;;;;;;;11.47;8.00;;;9.70;99.90;;;;;;4895954;29;20210;-60
2022/01/02 08:34:35;;;;;;;8.90;7.70;;;9.70;99.90;;;;;;4872281;29;22110;-60
2022/01/02 08:37:00;;;;;;;9.27;8.10;;;9.70;99.90;;;;;;4887535;29;20195;-60
2022/01/02 08:39:26;;;;;;;10.60;8.80;;;9.80;99.90;;;;;;4891700;29;20204;-60
2022/01/02 08:41:52;;;;;;;9.83;7.63;;;9.80;99.90;;;;;;4883393;29;20507;-60
2022/01/02 08:44:19;;;;;;;10.13;8.07;;;9.70;99.90;;;;;;4883532;29;20175;-60
2022/01/02 08:46:44;;;;;;;10.97;7.93;;;9.80;99.90;;;;;;4883509;29;20490;-60
2022/01/02 08:49:10;;;;;;;9.57;7.90;;;9.80;99.90;;;;;;4879812;29;20441;-60
2022/01/02 08:51:35;;;;;;;12.90;8.43;;;9.90;99.90;;;;;;4882636;29;20248;-60
2022/01/02 08:54:03;;;;;;;8.87;7.50;;;10.20;99.90;;;;;;4866273;29;20642;-58
2022/01/02 08:56:28;;;;;;;11.97;8.20;;;10.30;99.90;;;;;;4883320;29;20183;-59
2022/01/02 08:58:54;;;;;;;9.37;8.00;;;10.40;99.90;;;;;;4886252;29;20945;-60
2022/01/02 09:01:19;;;;;;;12.90;9.27;;;10.50;99.90;;;;;;4883215;29;20191;-60
2022/01/02 09:03:46;;;;;;;11.43;9.20;;;10.60;99.90;;;;;;4885487;29;20269;-60
2022/01/02 09:06:11;;;;;;;11.93;8.67;;;10.80;99.90;;;;;;4884462;29;20991;-60
2022/01/02 09:08:37;;;;;;;10.87;8.60;;;10.90;99.90;;;;;;4880858;29;20471;-60
2022/01/02 09:11:02;;;;;;;10.13;8.63;;;11.10;99.90;;;;;;4884121;29;20191;-61
2022/01/02 09:13:28;;;;;;;10.20;8.07;;;11.10;99.90;;;;;;4875652;29;20523;-60
2022/01/02 09:15:54;;;;;;;8.97;8.03;;;11.00;99.90;;;;;;4884416;29;20211;-61
2022/01/02 09:18:20;;;;;;;10.20;8.60;;;11.10;99.90;;;;;;4885622;29;20243;-58
2022/01/02 09:20:45;;;;;;;10.03;8.20;;;11.00;99.90;;;;;;4886211;29;20571;-60
2022/01/02 09:23:11;;;;;;;10.47;8.50;;;11.00;99.90;;;;;;4900234;29;20247;-59
2022/01/02 09:25:36;;;;;;;13.77;8.50;;;10.90;99.90;;;;;;4881010;29;20938;-60
2022/01/02 09:28:02;;;;;;;10.10;8.20;;;10.80;99.90;;;;;;4886312;29;20187;-59
2022/01/02 09:30:27;;;;;;;8.47;7.57;;;10.80;99.90;;;;;;4886108;29;20247;-58
2022/01/02 09:32:55;;;;;;;9.90;7.57;;;10.80;99.90;;;;;;4887285;29;20236;-60
2022/01/02 09:35:20;;;;;;;9.47;8.07;;;10.80;99.90;;;;;;4885673;29;20283;-59
2022/01/02 09:37:46;;;;;;;9.17;7.67;;;10.70;99.90;;;;;;4885230;29;20440;-59
2022/01/02 09:40:11;;;;;;;10.70;8.70;;;10.70;99.90;;;;;;4886389;29;20196;-59
2022/01/02 09:42:38;;;;;;;10.07;8.00;;;10.70;99.90;;;;;;4885720;29;20585;-53
2022/01/02 09:45:04;;;;;;;8.67;7.20;;;10.80;99.90;;;;;;4884984;29;20271;-59
2022/01/02 09:47:32;;;;;;;10.37;8.60;;;10.80;99.90;;;;;;4888827;29;20792;-60
2022/01/02 09:49:59;;;;;;;10.50;9.10;;;10.90;99.90;;;;;;4893480;29;20433;-60
2022/01/02 09:52:25;;;;;;;10.83;8.30;;;10.80;99.90;;;;;;4890698;29;20451;-59
2022/01/02 09:54:50;;;;;;;10.07;8.10;;;10.70;99.90;;;;;;4899106;29;20442;-60
2022/01/02 09:57:17;;;;;;;9.30;7.97;;;10.60;99.90;;;;;;4899807;29;20557;-60
2022/01/02 09:59:43;;;;;;;9.33;8.33;;;10.60;99.90;;;;;;4897499;29;20184;-59
2022/01/02 10:02:08;;;;;;;9.93;8.30;;;10.60;99.90;;;;;;4894633;29;20985;-60
2022/01/02 10:04:40;;;;;;;9.40;8.40;;;10.60;99.90;;;;;;4897085;29;20243;-60
2022/01/02 10:07:25;;;;;;;9.60;8.33;;;10.60;99.90;;;;;;4893519;29;20188;-59
2022/01/02 10:09:51;;;;;;;10.60;8.27;;;10.60;99.90;;;;;;4877037;29;20443;-61
2022/01/02 10:12:25;;;;;;;11.97;8.77;;;10.60;99.90;;;;;;4880675;29;20992;-60
2022/01/02 10:15:28;;;;;;;9.43;7.60;;;10.70;99.90;;;;;;4900477;29;20817;-60
2022/01/02 10:18:06;;;;;;;9.97;8.23;;;10.90;99.90;;;;;;4888344;29;20451;-61
2022/01/02 10:20:39;;;;;;;10.27;8.20;;;10.90;99.90;;;;;;4905137;29;20997;-60
2022/01/02 10:23:22;;;;;;;10.77;8.27;;;11.10;99.90;;;;;;4914417;29;20992;-60
2022/01/02 10:25:52;;;;;;;9.23;8.23;;;11.10;99.90;;;;;;4914756;29;21150;-61
2022/01/02 10:28:27;;;;;;;9.17;8.20;;;11.10;99.90;;;;;;4901393;29;20772;-60
2022/01/02 10:31:11;;;;;;;10.50;8.60;;;11.20;99.90;;;;;;4895603;29;20432;-61
2022/01/02 10:33:57;;;;;;;12.10;8.80;;;11.10;99.90;;;;;;4898063;29;20478;-56
2022/01/02 10:36:40;;;;;;;9.93;8.73;;;11.10;99.90;;;;;;4898001;29;21090;-60
2022/01/02 10:39:14;;;;;;;13.37;9.77;;;11.20;99.90;;;;;;4905435;29;20427;-61
2022/01/02 10:41:41;;;;;;;10.17;8.80;;;11.40;99.90;;;;;;4891186;29;20443;-61
2022/01/02 10:44:33;;;;;;;10.80;9.10;;;11.40;99.90;;;;;;4896394;29;20823;-62
2022/01/02 10:47:09;;;;;;;10.63;8.80;;;11.50;99.90;;;;;;4894474;29;20442;-61
2022/01/02 10:49:55;;;;;;;11.40;9.53;;;11.60;99.90;;;;;;4899767;29;20484;-63
2022/01/02 10:52:24;;;;;;;11.03;9.23;;;11.70;99.90;;;;;;4879775;29;20444;-62
2022/01/02 10:54:49;;;;;;;12.00;9.30;;;11.70;99.90;;;;;;4905902;29;20800;-61
2022/01/02 10:57:15;;;;;;;11.83;9.17;;;11.70;99.90;;;;;;4909168;29;20442;-62
2022/01/02 10:59:43;;;;;;;12.60;8.90;;;11.80;99.90;;;;;;4901505;29;20192;-62
2022/01/02 11:02:11;;;;;;;9.37;8.10;;;11.90;99.90;;;;;;4903802;29;20473;-58
2022/01/02 11:04:51;;;;;;;10.90;8.60;;;12.00;99.90;;;;;;4897481;29;20440;-60
2022/01/02 11:07:23;;;;;;;10.27;8.93;;;11.90;99.90;;;;;;4896117;29;20455;-60
2022/01/02 11:09:51;;;;;;;13.03;9.53;;;11.90;99.90;;;;;;4904821;29;20459;-59
2022/01/02 11:12:17;;;;;;;12.37;9.73;;;11.80;99.90;;;;;;4886098;29;20438;-61
2022/01/02 11:14:43;;;;;;;11.50;8.93;;;11.80;99.90;;;;;;4898594;29;20471;-60
2022/01/02 11:17:09;;;;;;;10.73;8.57;;;11.80;99.90;;;;;;4908015;29;20203;-60
2022/01/02 11:19:34;;;;;;;11.07;9.20;;;11.80;99.90;;;;;;4900593;29;20455;-56
2022/01/02 11:22:04;;;;;;;11.67;9.63;;;11.60;99.90;;;;;;4897734;29;20271;-60
2022/01/02 11:24:38;;;;;;;11.20;9.53;;;11.40;99.90;;;;;;4895608;29;20661;-60
2022/01/02 11:27:21;;;;;;;11.83;9.50;;;11.40;99.90;;;;;;4900642;29;20446;-59
2022/01/02 11:29:47;;;;;;;14.23;10.13;;;11.20;99.90;;;;;;4894197;29;20937;-60
2022/01/02 11:32:22;;;;;;;10.93;8.67;;;11.20;99.90;;;;;;4902001;29;20451;-60
2022/01/02 11:34:48;;;;;;;12.30;10.00;;;11.10;99.90;;;;;;4896820;29;20187;-60
2022/01/02 11:37:26;;;;;;;12.10;9.53;;;11.10;99.90;;;;;;4901337;29;20442;-61
2022/01/02 11:39:59;;;;;;;11.80;9.33;;;11.10;99.90;;;;;;4895388;29;20471;-60
2022/01/02 11:42:46;;;;;;;9.70;8.70;;;11.10;99.90;;;;;;4892590;29;20475;-61
2022/01/02 11:45:24;;;;;;;10.70;9.20;;;11.10;99.90;;;;;;4893363;29;20980;-60
2022/01/02 11:47:49;;;;;;;10.13;9.00;;;11.10;99.90;;;;;;4897919;29;20431;-61
2022/01/02 11:50:30;;;;;;;11.43;9.20;;;11.10;99.90;;;;;;4908281;29;20445;-61
2022/01/02 11:53:16;;;;;;;11.77;9.10;;;11.00;99.90;;;;;;4902245;29;20673;-60
2022/01/02 11:55:44;;;;;;;10.83;9.60;;;10.90;99.90;;;;;;4903183;29;20438;-60
2022/01/02 11:58:10;;;;;;;12.10;10.90;;;10.90;99.90;;;;;;4908789;29;20451;-59
2022/01/02 12:00:39;;;;;;;14.17;9.87;;;11.00;99.90;;;;;;4903160;29;20447;-54
2022/01/02 12:03:05;;;;;;;11.10;9.33;;;11.00;99.90;;;;;;4894514;29;20828;-60
2022/01/02 12:05:31;;;;;;;13.27;9.73;;;11.00;99.90;;;;;;4898912;29;21075;-59
2022/01/02 12:07:58;;;;;;;10.80;9.30;;;11.00;99.90;;;;;;4896294;29;20436;-59
2022/01/02 12:10:35;;;;;;;11.60;9.30;;;11.10;99.90;;;;;;4910497;29;20553;-60
2022/01/02 12:13:10;;;;;;;11.93;9.73;;;11.00;99.90;;;;;;4905982;29;20486;-60
2022/01/02 12:15:39;;;;;;;13.30;9.43;;;11.00;99.90;;;;;;4904891;29;20460;-59
2022/01/02 12:18:41;;;;;;;10.57;8.90;;;10.90;99.90;;;;;;4890868;29;20527;-60
2022/01/02 12:21:04;;;;;;;11.17;9.30;;;10.90;99.90;;;;;;4894598;29;20827;-60
2022/01/02 12:23:36;;;;;;;13.10;10.20;;;10.80;99.90;;;;;;4899374;29;20472;-59
2022/01/02 12:26:12;;;;;;;14.20;10.40;;;10.60;99.90;;;;;;4901234;29;20183;-60
2022/01/02 12:28:44;;;;;;;13.00;9.67;;;10.60;99.90;;;;;;4909243;29;20506;-59
2022/01/02 12:31:12;;;;;;;13.07;10.13;;;10.70;99.90;;;;;;4898002;29;20454;-58
2022/01/02 12:33:39;;;;;;;12.07;10.13;;;10.70;99.90;;;;;;4910792;29;20479;-59
2022/01/02 12:36:17;;;;;;;13.40;10.13;;;10.60;99.90;;;;;;4905536;29;20455;-59
2022/01/02 12:38:58;;;;;;;13.63;10.40;;;10.60;99.90;;;;;;4909561;29;20554;-60
2022/01/02 12:41:26;;;;;;;10.30;9.20;;;10.60;99.90;;;;;;4904333;29;20435;-59
2022/01/02 12:44:02;;;;;;;11.60;10.40;;;10.60;99.90;;;;;;4907734;29;20489;-60
2022/01/02 12:46:48;;;;;;;12.87;10.50;;;10.60;99.90;;;;;;4906612;29;20876;-60
2022/01/02 12:49:43;;;;;;;14.50;10.13;;;10.50;99.90;;;;;;4900392;29;20887;-56
2022/01/02 12:52:11;;;;;;;10.90;9.53;;;10.50;99.90;;;;;;4907217;29;20458;-60